sensor_id;sensor_type;location;lat;lon;timestamp;P1;durP1;ratioP1;P2;durP2;ratioP2
38083;SDS011;23894;51.466;7.444;2023-11-19T00:00:19;1.90;;;0.90;;
38083;SDS011;23894;51.466;7.444;2023-11-19T00:02:20;2.03;;;1.00;;
38083;SDS011;23894;51.466;7.444;2023-11-19T00:04:21;1.80;;;0.90;;
38083;SDS011;23894;51.466;7.444;2023-11-19T00:06:22;1.52;;;0.90;;
38083;SDS011;23894;51.466;7.444;2023-11-19T00:08:24;1.90;;;1.00;;
38083;SDS011;23894;51.466;7.444;2023-11-19T00:10:27;2.10;;;1.00;;
38083;SDS011;23894;51.466;7.444;2023-11-19T00:12:29;1.52;;;0.85;;
38083;SDS011;23894;51.466;7.444;2023-11-19T00:14:30;2.05;;;0.93;;
38083;SDS011;23894;51.466;7.444;2023-11-19T00:16:31;2.20;;;1.10;;
38083;SDS011;23894;51.466;7.444;2023-11-19T00:18:32;1.70;;;0.90;;
38083;SDS011;23894;51.466;7.444;2023-11-19T00:20:34;2.58;;;0.90;;
38083;SDS011;23894;51.466;7.444;2023-11-19T00:22:35;3.08;;;1.20;;
38083;SDS011;23894;51.466;7.444;2023-11-19T00:24:37;2.67;;;1.08;;
38083;SDS011;23894;51.466;7.444;2023-11-19T00:26:40;2.60;;;1.17;;
38083;SDS011;23894;51.466;7.444;2023-11-19T00:28:44;1.98;;;1.08;;
38083;SDS011;23894;51.466;7.444;2023-11-19T00:30:48;2.55;;;1.00;;
38083;SDS011;23894;51.466;7.444;2023-11-19T00:32:49;2.92;;;1.30;;
38083;SDS011;23894;51.466;7.444;2023-11-19T00:34:50;2.38;;;1.10;;
38083;SDS011;23894;51.466;7.444;2023-11-19T00:36:51;1.90;;;1.02;;
38083;SDS011;23894;51.466;7.444;2023-11-19T00:38:52;2.57;;;1.20;;
38083;SDS011;23894;51.466;7.444;2023-11-19T00:40:53;2.38;;;1.20;;
38083;SDS011;23894;51.466;7.444;2023-11-19T00:42:55;2.95;;;1.55;;
38083;SDS011;23894;51.466;7.444;2023-11-19T00:44:57;2.53;;;1.17;;
38083;SDS011;23894;51.466;7.444;2023-11-19T00:46:58;2.60;;;1.20;;
38083;SDS011;23894;51.466;7.444;2023-11-19T00:49:00;2.40;;;1.20;;
38083;SDS011;23894;51.466;7.444;2023-11-19T00:51:01;2.60;;;1.10;;
38083;SDS011;23894;51.466;7.444;2023-11-19T00:53:02;4.25;;;1.20;;
38083;SDS011;23894;51.466;7.444;2023-11-19T00:55:05;3.55;;;1.38;;
38083;SDS011;23894;51.466;7.444;2023-11-19T00:57:06;2.83;;;1.40;;
38083;SDS011;23894;51.466;7.444;2023-11-19T00:59:08;3.10;;;1.38;;
38083;SDS011;23894;51.466;7.444;2023-11-19T01:01:09;3.78;;;1.58;;
38083;SDS011;23894;51.466;7.444;2023-11-19T01:03:10;4.80;;;1.50;;
38083;SDS011;23894;51.466;7.444;2023-11-19T01:05:13;4.95;;;1.40;;
38083;SDS011;23894;51.466;7.444;2023-11-19T01:07:15;3.35;;;1.65;;
38083;SDS011;23894;51.466;7.444;2023-11-19T01:09:18;4.28;;;1.52;;
38083;SDS011;23894;51.466;7.444;2023-11-19T01:11:22;2.60;;;1.40;;
38083;SDS011;23894;51.466;7.444;2023-11-19T01:13:25;3.33;;;1.50;;
38083;SDS011;23894;51.466;7.444;2023-11-19T01:15:26;3.47;;;1.60;;
38083;SDS011;23894;51.466;7.444;2023-11-19T01:17:27;3.00;;;1.40;;
38083;SDS011;23894;51.466;7.444;2023-11-19T01:19:31;3.80;;;1.50;;
38083;SDS011;23894;51.466;7.444;2023-11-19T01:21:33;4.40;;;1.67;;
38083;SDS011;23894;51.466;7.444;2023-11-19T01:23:34;3.75;;;1.48;;
38083;SDS011;23894;51.466;7.444;2023-11-19T01:25:36;3.97;;;1.63;;
38083;SDS011;23894;51.466;7.444;2023-11-19T01:27:40;3.23;;;1.67;;
38083;SDS011;23894;51.466;7.444;2023-11-19T01:29:42;4.63;;;1.77;;
38083;SDS011;23894;51.466;7.444;2023-11-19T01:31:45;3.70;;;1.60;;
38083;SDS011;23894;51.466;7.444;2023-11-19T01:33:46;3.38;;;1.60;;
38083;SDS011;23894;51.466;7.444;2023-11-19T01:35:47;3.90;;;1.90;;
38083;SDS011;23894;51.466;7.444;2023-11-19T01:37:49;3.60;;;1.60;;
38083;SDS011;23894;51.466;7.444;2023-11-19T01:39:51;4.47;;;1.73;;
38083;SDS011;23894;51.466;7.444;2023-11-19T01:41:52;3.60;;;1.70;;
38083;SDS011;23894;51.466;7.444;2023-11-19T01:43:54;4.82;;;1.40;;
38083;SDS011;23894;51.466;7.444;2023-11-19T01:45:55;3.05;;;1.40;;
38083;SDS011;23894;51.466;7.444;2023-11-19T01:47:57;4.53;;;1.45;;
38083;SDS011;23894;51.466;7.444;2023-11-19T01:49:59;2.47;;;1.20;;
38083;SDS011;23894;51.466;7.444;2023-11-19T01:52:02;4.05;;;1.23;;
38083;SDS011;23894;51.466;7.444;2023-11-19T01:54:03;3.13;;;1.40;;
38083;SDS011;23894;51.466;7.444;2023-11-19T01:56:04;3.70;;;1.67;;
38083;SDS011;23894;51.466;7.444;2023-11-19T01:58:08;2.93;;;1.10;;
38083;SDS011;23894;51.466;7.444;2023-11-19T02:00:10;2.33;;;1.20;;
38083;SDS011;23894;51.466;7.444;2023-11-19T02:02:12;3.08;;;1.15;;
38083;SDS011;23894;51.466;7.444;2023-11-19T02:04:15;2.25;;;1.00;;
38083;SDS011;23894;51.466;7.444;2023-11-19T02:06:17;2.43;;;1.00;;
38083;SDS011;23894;51.466;7.444;2023-11-19T02:08:19;2.93;;;1.30;;
38083;SDS011;23894;51.466;7.444;2023-11-19T02:10:21;1.95;;;0.90;;
38083;SDS011;23894;51.466;7.444;2023-11-19T02:12:25;2.85;;;1.25;;
38083;SDS011;23894;51.466;7.444;2023-11-19T02:14:29;2.78;;;1.10;;
38083;SDS011;23894;51.466;7.444;2023-11-19T02:16:32;2.03;;;1.05;;
38083;SDS011;23894;51.466;7.444;2023-11-19T02:18:33;3.97;;;1.17;;
38083;SDS011;23894;51.466;7.444;2023-11-19T02:20:35;3.43;;;1.37;;
38083;SDS011;23894;51.466;7.444;2023-11-19T02:22:38;2.83;;;1.17;;
38083;SDS011;23894;51.466;7.444;2023-11-19T02:24:41;3.35;;;1.40;;
38083;SDS011;23894;51.466;7.444;2023-11-19T02:27:02;4.32;;;1.63;;
38083;SDS011;23894;51.466;7.444;2023-11-19T02:29:05;3.42;;;1.67;;
38083;SDS011;23894;51.466;7.444;2023-11-19T02:31:11;5.03;;;1.70;;
38083;SDS011;23894;51.466;7.444;2023-11-19T02:33:11;4.60;;;1.60;;
38083;SDS011;23894;51.466;7.444;2023-11-19T02:35:12;4.55;;;1.70;;
38083;SDS011;23894;51.466;7.444;2023-11-19T02:37:13;3.78;;;1.50;;
38083;SDS011;23894;51.466;7.444;2023-11-19T02:39:14;5.82;;;1.90;;
38083;SDS011;23894;51.466;7.444;2023-11-19T02:41:21;3.88;;;1.60;;
38083;SDS011;23894;51.466;7.444;2023-11-19T02:43:22;5.78;;;1.90;;
38083;SDS011;23894;51.466;7.444;2023-11-19T02:45:23;6.63;;;1.80;;
38083;SDS011;23894;51.466;7.444;2023-11-19T02:47:25;5.93;;;1.80;;
38083;SDS011;23894;51.466;7.444;2023-11-19T02:49:30;7.45;;;1.67;;
38083;SDS011;23894;51.466;7.444;2023-11-19T02:51:33;8.45;;;2.03;;
38083;SDS011;23894;51.466;7.444;2023-11-19T02:53:38;4.90;;;1.60;;
38083;SDS011;23894;51.466;7.444;2023-11-19T02:55:41;5.00;;;1.63;;
38083;SDS011;23894;51.466;7.444;2023-11-19T02:57:48;6.72;;;2.08;;
38083;SDS011;23894;51.466;7.444;2023-11-19T02:59:49;4.72;;;1.77;;
38083;SDS011;23894;51.466;7.444;2023-11-19T03:01:52;4.72;;;1.67;;
38083;SDS011;23894;51.466;7.444;2023-11-19T03:03:53;5.43;;;1.77;;
38083;SDS011;23894;51.466;7.444;2023-11-19T03:05:54;8.30;;;1.77;;
38083;SDS011;23894;51.466;7.444;2023-11-19T03:07:57;6.25;;;1.77;;
38083;SDS011;23894;51.466;7.444;2023-11-19T03:09:58;6.03;;;1.60;;
38083;SDS011;23894;51.466;7.444;2023-11-19T03:11:59;6.25;;;1.80;;
38083;SDS011;23894;51.466;7.444;2023-11-19T03:14:00;5.18;;;2.17;;
38083;SDS011;23894;51.466;7.444;2023-11-19T03:16:03;6.65;;;1.88;;
38083;SDS011;23894;51.466;7.444;2023-11-19T03:18:04;6.07;;;1.98;;
38083;SDS011;23894;51.466;7.444;2023-11-19T03:20:05;7.47;;;1.90;;
38083;SDS011;23894;51.466;7.444;2023-11-19T03:22:07;7.00;;;1.90;;
38083;SDS011;23894;51.466;7.444;2023-11-19T03:24:08;7.35;;;2.17;;
38083;SDS011;23894;51.466;7.444;2023-11-19T03:26:10;5.17;;;1.80;;
38083;SDS011;23894;51.466;7.444;2023-11-19T03:28:11;6.53;;;1.98;;
38083;SDS011;23894;51.466;7.444;2023-11-19T03:30:13;7.47;;;2.30;;
38083;SDS011;23894;51.466;7.444;2023-11-19T03:32:14;8.52;;;2.38;;
38083;SDS011;23894;51.466;7.444;2023-11-19T03:34:15;7.50;;;2.17;;
38083;SDS011;23894;51.466;7.444;2023-11-19T03:36:16;8.13;;;2.30;;
38083;SDS011;23894;51.466;7.444;2023-11-19T03:38:18;6.65;;;2.40;;
38083;SDS011;23894;51.466;7.444;2023-11-19T03:40:22;8.73;;;2.28;;
38083;SDS011;23894;51.466;7.444;2023-11-19T03:42:24;9.68;;;2.47;;
38083;SDS011;23894;51.466;7.444;2023-11-19T03:44:25;9.70;;;2.40;;
38083;SDS011;23894;51.466;7.444;2023-11-19T03:46:27;6.55;;;2.30;;
38083;SDS011;23894;51.466;7.444;2023-11-19T03:48:29;8.75;;;2.47;;
38083;SDS011;23894;51.466;7.444;2023-11-19T03:50:31;8.83;;;2.33;;
38083;SDS011;23894;51.466;7.444;2023-11-19T03:52:33;11.30;;;2.65;;
38083;SDS011;23894;51.466;7.444;2023-11-19T03:54:34;9.30;;;2.83;;
38083;SDS011;23894;51.466;7.444;2023-11-19T03:56:35;9.40;;;2.80;;
38083;SDS011;23894;51.466;7.444;2023-11-19T03:58:36;12.10;;;2.90;;
38083;SDS011;23894;51.466;7.444;2023-11-19T04:00:38;10.13;;;2.97;;
38083;SDS011;23894;51.466;7.444;2023-11-19T04:02:41;11.30;;;3.08;;
38083;SDS011;23894;51.466;7.444;2023-11-19T04:04:42;9.30;;;2.72;;
38083;SDS011;23894;51.466;7.444;2023-11-19T04:06:44;11.52;;;3.03;;
38083;SDS011;23894;51.466;7.444;2023-11-19T04:08:45;12.25;;;3.08;;
38083;SDS011;23894;51.466;7.444;2023-11-19T04:10:46;10.23;;;3.00;;
38083;SDS011;23894;51.466;7.444;2023-11-19T04:12:48;10.87;;;3.30;;
38083;SDS011;23894;51.466;7.444;2023-11-19T04:14:49;8.80;;;3.03;;
38083;SDS011;23894;51.466;7.444;2023-11-19T04:16:49;9.38;;;3.15;;
38083;SDS011;23894;51.466;7.444;2023-11-19T04:18:51;13.50;;;3.20;;
38083;SDS011;23894;51.466;7.444;2023-11-19T04:20:52;11.57;;;3.58;;
38083;SDS011;23894;51.466;7.444;2023-11-19T04:22:53;13.10;;;3.50;;
38083;SDS011;23894;51.466;7.444;2023-11-19T04:24:54;10.35;;;3.63;;
38083;SDS011;23894;51.466;7.444;2023-11-19T04:26:55;10.60;;;3.78;;
38083;SDS011;23894;51.466;7.444;2023-11-19T04:28:55;11.73;;;3.47;;
38083;SDS011;23894;51.466;7.444;2023-11-19T04:30:56;11.13;;;3.20;;
38083;SDS011;23894;51.466;7.444;2023-11-19T04:32:59;11.75;;;3.25;;
38083;SDS011;23894;51.466;7.444;2023-11-19T04:35:00;12.40;;;3.10;;
38083;SDS011;23894;51.466;7.444;2023-11-19T04:37:02;11.00;;;3.00;;
38083;SDS011;23894;51.466;7.444;2023-11-19T04:39:04;10.60;;;3.30;;
38083;SDS011;23894;51.466;7.444;2023-11-19T04:41:09;9.25;;;3.00;;
38083;SDS011;23894;51.466;7.444;2023-11-19T04:43:12;9.50;;;2.88;;
38083;SDS011;23894;51.466;7.444;2023-11-19T04:45:13;13.52;;;3.03;;
38083;SDS011;23894;51.466;7.444;2023-11-19T04:47:14;11.57;;;3.40;;
38083;SDS011;23894;51.466;7.444;2023-11-19T04:49:16;13.60;;;3.55;;
38083;SDS011;23894;51.466;7.444;2023-11-19T04:51:19;10.15;;;3.05;;
38083;SDS011;23894;51.466;7.444;2023-11-19T04:53:22;14.00;;;4.07;;
38083;SDS011;23894;51.466;7.444;2023-11-19T04:55:23;12.95;;;3.50;;
38083;SDS011;23894;51.466;7.444;2023-11-19T04:57:24;14.55;;;3.40;;
38083;SDS011;23894;51.466;7.444;2023-11-19T04:59:26;12.50;;;3.85;;
38083;SDS011;23894;51.466;7.444;2023-11-19T05:01:28;14.77;;;4.15;;
38083;SDS011;23894;51.466;7.444;2023-11-19T05:03:33;13.25;;;3.90;;
38083;SDS011;23894;51.466;7.444;2023-11-19T05:05:36;10.93;;;3.17;;
38083;SDS011;23894;51.466;7.444;2023-11-19T05:07:38;13.38;;;3.30;;
38083;SDS011;23894;51.466;7.444;2023-11-19T05:09:39;11.33;;;3.37;;
38083;SDS011;23894;51.466;7.444;2023-11-19T05:11:40;11.68;;;3.60;;
38083;SDS011;23894;51.466;7.444;2023-11-19T05:13:43;15.43;;;3.83;;
38083;SDS011;23894;51.466;7.444;2023-11-19T05:15:46;12.60;;;3.90;;
38083;SDS011;23894;51.466;7.444;2023-11-19T05:17:50;11.68;;;3.50;;
38083;SDS011;23894;51.466;7.444;2023-11-19T05:19:53;13.57;;;3.95;;
38083;SDS011;23894;51.466;7.444;2023-11-19T05:21:55;14.93;;;4.10;;
38083;SDS011;23894;51.466;7.444;2023-11-19T05:23:58;14.20;;;4.10;;
38083;SDS011;23894;51.466;7.444;2023-11-19T05:26:01;15.00;;;3.92;;
38083;SDS011;23894;51.466;7.444;2023-11-19T05:28:02;11.35;;;3.92;;
38083;SDS011;23894;51.466;7.444;2023-11-19T05:30:04;13.18;;;3.80;;
38083;SDS011;23894;51.466;7.444;2023-11-19T05:32:11;13.73;;;4.27;;
38083;SDS011;23894;51.466;7.444;2023-11-19T05:34:12;15.38;;;3.97;;
38083;SDS011;23894;51.466;7.444;2023-11-19T05:36:16;15.05;;;4.05;;
38083;SDS011;23894;51.466;7.444;2023-11-19T05:38:17;13.20;;;4.15;;
38083;SDS011;23894;51.466;7.444;2023-11-19T05:40:19;12.25;;;3.63;;
38083;SDS011;23894;51.466;7.444;2023-11-19T05:42:20;13.10;;;3.67;;
38083;SDS011;23894;51.466;7.444;2023-11-19T05:44:21;12.80;;;4.10;;
38083;SDS011;23894;51.466;7.444;2023-11-19T05:46:22;19.88;;;3.85;;
38083;SDS011;23894;51.466;7.444;2023-11-19T05:48:25;14.10;;;4.50;;
38083;SDS011;23894;51.466;7.444;2023-11-19T05:50:27;15.23;;;4.40;;
38083;SDS011;23894;51.466;7.444;2023-11-19T05:52:28;14.98;;;4.53;;
38083;SDS011;23894;51.466;7.444;2023-11-19T05:54:33;12.88;;;4.18;;
38083;SDS011;23894;51.466;7.444;2023-11-19T05:56:37;16.85;;;4.72;;
38083;SDS011;23894;51.466;7.444;2023-11-19T05:58:39;19.93;;;5.23;;
38083;SDS011;23894;51.466;7.444;2023-11-19T06:00:44;17.00;;;4.60;;
38083;SDS011;23894;51.466;7.444;2023-11-19T06:02:47;15.10;;;4.30;;
38083;SDS011;23894;51.466;7.444;2023-11-19T06:04:48;14.45;;;3.70;;
38083;SDS011;23894;51.466;7.444;2023-11-19T06:06:49;18.90;;;4.50;;
38083;SDS011;23894;51.466;7.444;2023-11-19T06:08:52;15.15;;;4.05;;
38083;SDS011;23894;51.466;7.444;2023-11-19T06:10:54;14.68;;;4.00;;
38083;SDS011;23894;51.466;7.444;2023-11-19T06:13:02;14.65;;;4.47;;
38083;SDS011;23894;51.466;7.444;2023-11-19T06:15:05;14.43;;;4.70;;
38083;SDS011;23894;51.466;7.444;2023-11-19T06:17:06;13.88;;;4.00;;
38083;SDS011;23894;51.466;7.444;2023-11-19T06:19:08;12.15;;;3.78;;
38083;SDS011;23894;51.466;7.444;2023-11-19T06:21:10;14.77;;;4.25;;
38083;SDS011;23894;51.466;7.444;2023-11-19T06:23:11;21.30;;;4.80;;
38083;SDS011;23894;51.466;7.444;2023-11-19T06:25:13;17.57;;;4.73;;
38083;SDS011;23894;51.466;7.444;2023-11-19T06:27:14;15.23;;;4.05;;
38083;SDS011;23894;51.466;7.444;2023-11-19T06:29:17;12.10;;;4.07;;
38083;SDS011;23894;51.466;7.444;2023-11-19T06:31:19;11.68;;;3.88;;
38083;SDS011;23894;51.466;7.444;2023-11-19T06:33:20;19.55;;;4.72;;
38083;SDS011;23894;51.466;7.444;2023-11-19T06:35:22;16.23;;;4.78;;
38083;SDS011;23894;51.466;7.444;2023-11-19T06:37:24;14.05;;;4.00;;
38083;SDS011;23894;51.466;7.444;2023-11-19T06:39:25;12.32;;;4.20;;
38083;SDS011;23894;51.466;7.444;2023-11-19T06:41:28;15.98;;;4.55;;
38083;SDS011;23894;51.466;7.444;2023-11-19T06:43:31;13.70;;;4.18;;
38083;SDS011;23894;51.466;7.444;2023-11-19T06:45:33;14.15;;;4.60;;
38083;SDS011;23894;51.466;7.444;2023-11-19T06:47:36;19.05;;;4.45;;
38083;SDS011;23894;51.466;7.444;2023-11-19T06:49:38;19.10;;;4.88;;
38083;SDS011;23894;51.466;7.444;2023-11-19T06:51:42;12.65;;;4.35;;
38083;SDS011;23894;51.466;7.444;2023-11-19T06:53:45;16.67;;;4.80;;
38083;SDS011;23894;51.466;7.444;2023-11-19T06:55:46;15.40;;;4.45;;
38083;SDS011;23894;51.466;7.444;2023-11-19T06:57:47;17.45;;;4.50;;
38083;SDS011;23894;51.466;7.444;2023-11-19T06:59:48;15.77;;;4.50;;
38083;SDS011;23894;51.466;7.444;2023-11-19T07:01:50;20.00;;;4.90;;
38083;SDS011;23894;51.466;7.444;2023-11-19T07:03:53;16.00;;;4.72;;
38083;SDS011;23894;51.466;7.444;2023-11-19T07:05:54;16.53;;;4.30;;
38083;SDS011;23894;51.466;7.444;2023-11-19T07:07:57;16.20;;;4.40;;
38083;SDS011;23894;51.466;7.444;2023-11-19T07:09:59;15.80;;;4.85;;
38083;SDS011;23894;51.466;7.444;2023-11-19T07:12:01;16.63;;;5.10;;
38083;SDS011;23894;51.466;7.444;2023-11-19T07:14:05;19.60;;;5.00;;
38083;SDS011;23894;51.466;7.444;2023-11-19T07:16:06;12.18;;;4.05;;
38083;SDS011;23894;51.466;7.444;2023-11-19T07:18:09;15.90;;;4.53;;
38083;SDS011;23894;51.466;7.444;2023-11-19T07:20:13;19.30;;;5.13;;
38083;SDS011;23894;51.466;7.444;2023-11-19T07:22:16;15.03;;;4.33;;
38083;SDS011;23894;51.466;7.444;2023-11-19T07:24:17;16.20;;;4.63;;
38083;SDS011;23894;51.466;7.444;2023-11-19T07:26:18;17.98;;;4.40;;
38083;SDS011;23894;51.466;7.444;2023-11-19T07:28:21;15.20;;;4.43;;
38083;SDS011;23894;51.466;7.444;2023-11-19T07:30:22;14.63;;;4.55;;
38083;SDS011;23894;51.466;7.444;2023-11-19T07:32:23;18.45;;;4.75;;
38083;SDS011;23894;51.466;7.444;2023-11-19T07:34:24;18.00;;;4.30;;
38083;SDS011;23894;51.466;7.444;2023-11-19T07:36:25;17.00;;;4.43;;
38083;SDS011;23894;51.466;7.444;2023-11-19T07:38:26;15.50;;;4.32;;
38083;SDS011;23894;51.466;7.444;2023-11-19T07:40:27;14.18;;;4.32;;
38083;SDS011;23894;51.466;7.444;2023-11-19T07:42:28;18.15;;;4.82;;
38083;SDS011;23894;51.466;7.444;2023-11-19T07:44:31;14.05;;;4.50;;
38083;SDS011;23894;51.466;7.444;2023-11-19T07:46:33;18.30;;;4.47;;
38083;SDS011;23894;51.466;7.444;2023-11-19T07:48:41;15.67;;;3.83;;
38083;SDS011;23894;51.466;7.444;2023-11-19T07:50:42;15.38;;;4.95;;
38083;SDS011;23894;51.466;7.444;2023-11-19T07:52:43;19.88;;;4.60;;
38083;SDS011;23894;51.466;7.444;2023-11-19T07:54:44;17.58;;;4.38;;
38083;SDS011;23894;51.466;7.444;2023-11-19T07:56:46;20.60;;;4.70;;
38083;SDS011;23894;51.466;7.444;2023-11-19T07:58:50;16.40;;;4.20;;
38083;SDS011;23894;51.466;7.444;2023-11-19T08:00:51;12.63;;;4.15;;
38083;SDS011;23894;51.466;7.444;2023-11-19T08:02:52;15.73;;;4.32;;
38083;SDS011;23894;51.466;7.444;2023-11-19T08:04:53;14.82;;;4.68;;
38083;SDS011;23894;51.466;7.444;2023-11-19T08:06:55;18.20;;;4.53;;
38083;SDS011;23894;51.466;7.444;2023-11-19T08:08:56;12.25;;;4.28;;
38083;SDS011;23894;51.466;7.444;2023-11-19T08:10:59;13.32;;;4.43;;
38083;SDS011;23894;51.466;7.444;2023-11-19T08:13:01;18.98;;;4.68;;
38083;SDS011;23894;51.466;7.444;2023-11-19T08:15:03;15.25;;;4.22;;
38083;SDS011;23894;51.466;7.444;2023-11-19T08:17:04;19.10;;;4.88;;
38083;SDS011;23894;51.466;7.444;2023-11-19T08:19:06;16.92;;;4.93;;
38083;SDS011;23894;51.466;7.444;2023-11-19T08:21:09;16.65;;;4.57;;
38083;SDS011;23894;51.466;7.444;2023-11-19T08:23:12;15.63;;;4.72;;
38083;SDS011;23894;51.466;7.444;2023-11-19T08:25:14;17.58;;;4.32;;
38083;SDS011;23894;51.466;7.444;2023-11-19T08:27:15;14.27;;;4.82;;
38083;SDS011;23894;51.466;7.444;2023-11-19T08:29:16;19.50;;;4.53;;
38083;SDS011;23894;51.466;7.444;2023-11-19T08:31:18;16.33;;;4.63;;
38083;SDS011;23894;51.466;7.444;2023-11-19T08:33:20;23.10;;;4.47;;
38083;SDS011;23894;51.466;7.444;2023-11-19T08:35:22;15.48;;;3.95;;
38083;SDS011;23894;51.466;7.444;2023-11-19T08:37:25;15.40;;;4.55;;
38083;SDS011;23894;51.466;7.444;2023-11-19T08:39:29;16.95;;;4.80;;
38083;SDS011;23894;51.466;7.444;2023-11-19T08:41:30;16.83;;;5.03;;
38083;SDS011;23894;51.466;7.444;2023-11-19T08:43:31;17.40;;;5.43;;
38083;SDS011;23894;51.466;7.444;2023-11-19T08:45:32;18.60;;;4.75;;
38083;SDS011;23894;51.466;7.444;2023-11-19T08:47:33;19.85;;;4.85;;
38083;SDS011;23894;51.466;7.444;2023-11-19T08:49:34;16.20;;;4.80;;
38083;SDS011;23894;51.466;7.444;2023-11-19T08:51:36;19.55;;;4.90;;
38083;SDS011;23894;51.466;7.444;2023-11-19T08:53:37;20.48;;;5.20;;
38083;SDS011;23894;51.466;7.444;2023-11-19T08:55:39;22.23;;;4.68;;
38083;SDS011;23894;51.466;7.444;2023-11-19T08:57:43;17.43;;;4.87;;
38083;SDS011;23894;51.466;7.444;2023-11-19T08:59:44;19.00;;;5.32;;
38083;SDS011;23894;51.466;7.444;2023-11-19T09:01:45;18.10;;;5.07;;
38083;SDS011;23894;51.466;7.444;2023-11-19T09:03:46;18.13;;;4.90;;
38083;SDS011;23894;51.466;7.444;2023-11-19T09:05:48;18.30;;;5.30;;
38083;SDS011;23894;51.466;7.444;2023-11-19T09:07:51;21.65;;;5.40;;
38083;SDS011;23894;51.466;7.444;2023-11-19T09:09:52;18.33;;;5.18;;
38083;SDS011;23894;51.466;7.444;2023-11-19T09:11:53;19.70;;;4.97;;
38083;SDS011;23894;51.466;7.444;2023-11-19T09:13:55;16.33;;;4.82;;
38083;SDS011;23894;51.466;7.444;2023-11-19T09:15:56;17.83;;;5.55;;
38083;SDS011;23894;51.466;7.444;2023-11-19T09:18:03;21.83;;;5.93;;
38083;SDS011;23894;51.466;7.444;2023-11-19T09:20:06;20.97;;;6.30;;
38083;SDS011;23894;51.466;7.444;2023-11-19T09:22:08;17.85;;;5.18;;
38083;SDS011;23894;51.466;7.444;2023-11-19T09:24:10;17.33;;;4.95;;
38083;SDS011;23894;51.466;7.444;2023-11-19T09:26:11;18.40;;;5.05;;
38083;SDS011;23894;51.466;7.444;2023-11-19T09:28:12;18.05;;;4.57;;
38083;SDS011;23894;51.466;7.444;2023-11-19T09:30:14;21.55;;;5.20;;
38083;SDS011;23894;51.466;7.444;2023-11-19T09:32:15;19.75;;;5.10;;
38083;SDS011;23894;51.466;7.444;2023-11-19T09:34:16;20.30;;;4.70;;
38083;SDS011;23894;51.466;7.444;2023-11-19T09:36:17;17.13;;;4.72;;
38083;SDS011;23894;51.466;7.444;2023-11-19T09:38:19;17.15;;;5.57;;
38083;SDS011;23894;51.466;7.444;2023-11-19T09:40:21;17.75;;;5.35;;
38083;SDS011;23894;51.466;7.444;2023-11-19T09:42:23;20.50;;;5.32;;
38083;SDS011;23894;51.466;7.444;2023-11-19T09:44:25;21.52;;;5.63;;
38083;SDS011;23894;51.466;7.444;2023-11-19T09:46:28;20.35;;;5.68;;
38083;SDS011;23894;51.466;7.444;2023-11-19T09:48:33;17.52;;;5.10;;
38083;SDS011;23894;51.466;7.444;2023-11-19T09:50:35;17.80;;;5.05;;
38083;SDS011;23894;51.466;7.444;2023-11-19T09:52:36;17.58;;;5.55;;
38083;SDS011;23894;51.466;7.444;2023-11-19T09:54:37;15.82;;;5.00;;
38083;SDS011;23894;51.466;7.444;2023-11-19T09:56:41;18.95;;;5.00;;
38083;SDS011;23894;51.466;7.444;2023-11-19T09:58:42;16.65;;;5.07;;
38083;SDS011;23894;51.466;7.444;2023-11-19T10:00:43;19.70;;;4.93;;
38083;SDS011;23894;51.466;7.444;2023-11-19T10:02:44;19.35;;;5.07;;
38083;SDS011;23894;51.466;7.444;2023-11-19T10:04:46;17.80;;;4.55;;
38083;SDS011;23894;51.466;7.444;2023-11-19T10:06:47;17.02;;;5.15;;
38083;SDS011;23894;51.466;7.444;2023-11-19T10:08:49;17.20;;;5.07;;
38083;SDS011;23894;51.466;7.444;2023-11-19T10:10:51;18.05;;;5.10;;
38083;SDS011;23894;51.466;7.444;2023-11-19T10:12:53;18.67;;;4.78;;
38083;SDS011;23894;51.466;7.444;2023-11-19T10:14:56;20.52;;;5.38;;
38083;SDS011;23894;51.466;7.444;2023-11-19T10:17:01;19.50;;;4.87;;
38083;SDS011;23894;51.466;7.444;2023-11-19T10:19:04;18.98;;;5.10;;
38083;SDS011;23894;51.466;7.444;2023-11-19T10:21:08;19.90;;;5.60;;
38083;SDS011;23894;51.466;7.444;2023-11-19T10:23:16;17.63;;;4.82;;
38083;SDS011;23894;51.466;7.444;2023-11-19T10:25:27;19.55;;;4.40;;
38083;SDS011;23894;51.466;7.444;2023-11-19T10:27:29;20.70;;;5.32;;
38083;SDS011;23894;51.466;7.444;2023-11-19T10:29:30;16.58;;;4.28;;
38083;SDS011;23894;51.466;7.444;2023-11-19T10:31:31;14.50;;;4.95;;
38083;SDS011;23894;51.466;7.444;2023-11-19T10:33:32;17.90;;;4.90;;
38083;SDS011;23894;51.466;7.444;2023-11-19T10:35:34;16.27;;;4.63;;
38083;SDS011;23894;51.466;7.444;2023-11-19T10:37:35;23.48;;;5.30;;
38083;SDS011;23894;51.466;7.444;2023-11-19T10:39:52;23.42;;;5.50;;
38083;SDS011;23894;51.466;7.444;2023-11-19T10:42:01;20.27;;;5.30;;
38083;SDS011;23894;51.466;7.444;2023-11-19T10:44:30;18.93;;;5.10;;
38083;SDS011;23894;51.466;7.444;2023-11-19T10:46:40;19.95;;;5.10;;
38083;SDS011;23894;51.466;7.444;2023-11-19T10:48:41;18.92;;;5.85;;
38083;SDS011;23894;51.466;7.444;2023-11-19T10:50:42;19.73;;;5.35;;
38083;SDS011;23894;51.466;7.444;2023-11-19T10:52:45;17.70;;;4.80;;
38083;SDS011;23894;51.466;7.444;2023-11-19T10:54:49;16.17;;;4.75;;
38083;SDS011;23894;51.466;7.444;2023-11-19T10:56:58;15.68;;;4.80;;
38083;SDS011;23894;51.466;7.444;2023-11-19T10:59:01;17.15;;;5.32;;
38083;SDS011;23894;51.466;7.444;2023-11-19T11:01:16;19.98;;;5.22;;
38083;SDS011;23894;51.466;7.444;2023-11-19T11:03:21;15.38;;;4.95;;
38083;SDS011;23894;51.466;7.444;2023-11-19T11:05:24;16.25;;;4.47;;
38083;SDS011;23894;51.466;7.444;2023-11-19T11:07:26;19.57;;;5.33;;
38083;SDS011;23894;51.466;7.444;2023-11-19T11:09:28;20.85;;;4.85;;
38083;SDS011;23894;51.466;7.444;2023-11-19T11:11:30;20.98;;;5.50;;
38083;SDS011;23894;51.466;7.444;2023-11-19T11:13:31;18.27;;;5.13;;
38083;SDS011;23894;51.466;7.444;2023-11-19T11:15:32;12.18;;;4.55;;
38083;SDS011;23894;51.466;7.444;2023-11-19T11:17:33;15.25;;;4.30;;
38083;SDS011;23894;51.466;7.444;2023-11-19T11:19:35;17.52;;;5.07;;
38083;SDS011;23894;51.466;7.444;2023-11-19T11:21:37;13.80;;;4.40;;
38083;SDS011;23894;51.466;7.444;2023-11-19T11:32:21;19.77;;;4.72;;
38083;SDS011;23894;51.466;7.444;2023-11-19T11:36:26;13.98;;;4.65;;
38083;SDS011;23894;51.466;7.444;2023-11-19T11:38:28;19.53;;;5.03;;
38083;SDS011;23894;51.466;7.444;2023-11-19T11:40:30;20.52;;;5.13;;
38083;SDS011;23894;51.466;7.444;2023-11-19T11:42:33;21.03;;;4.10;;
38083;SDS011;23894;51.466;7.444;2023-11-19T11:46:54;13.32;;;4.43;;
38083;SDS011;23894;51.466;7.444;2023-11-19T11:48:55;20.38;;;4.97;;
38083;SDS011;23894;51.466;7.444;2023-11-19T11:50:57;14.25;;;4.30;;
38083;SDS011;23894;51.466;7.444;2023-11-19T11:55:05;22.20;;;4.78;;
38083;SDS011;23894;51.466;7.444;2023-11-19T11:57:12;13.95;;;4.70;;
38083;SDS011;23894;51.466;7.444;2023-11-19T11:59:20;15.23;;;4.68;;
38083;SDS011;23894;51.466;7.444;2023-11-19T12:01:21;14.60;;;4.60;;
38083;SDS011;23894;51.466;7.444;2023-11-19T12:03:22;12.10;;;4.20;;
38083;SDS011;23894;51.466;7.444;2023-11-19T12:05:23;15.77;;;4.07;;
38083;SDS011;23894;51.466;7.444;2023-11-19T12:07:24;13.65;;;3.80;;
38083;SDS011;23894;51.466;7.444;2023-11-19T12:09:25;15.05;;;4.15;;
38083;SDS011;23894;51.466;7.444;2023-11-19T12:11:26;16.98;;;4.85;;
38083;SDS011;23894;51.466;7.444;2023-11-19T12:13:42;15.57;;;4.55;;
38083;SDS011;23894;51.466;7.444;2023-11-19T12:17:57;11.30;;;3.73;;
38083;SDS011;23894;51.466;7.444;2023-11-19T12:20:02;15.60;;;4.38;;
38083;SDS011;23894;51.466;7.444;2023-11-19T12:22:07;12.57;;;3.90;;
38083;SDS011;23894;51.466;7.444;2023-11-19T12:24:11;16.17;;;4.30;;
38083;SDS011;23894;51.466;7.444;2023-11-19T12:26:31;12.25;;;3.70;;